createdAt,value
2023-01-08T00:00:22.632Z,54.28
2023-01-08T00:03:24.837Z,54.37
2023-01-08T00:06:26.609Z,54.48
2023-01-08T00:09:29.179Z,53.92
2023-01-08T00:12:30.600Z,53.58
2023-01-08T00:15:33.622Z,53.36
2023-01-08T00:18:35.184Z,53.26
2023-01-08T00:21:36.605Z,52.90
2023-01-08T00:24:38.011Z,52.35
2023-01-08T00:27:39.393Z,51.98
2023-01-08T00:30:42.182Z,50.84
2023-01-08T00:33:43.663Z,51.48
2023-01-08T00:36:45.063Z,52.73
2023-01-08T00:39:46.491Z,51.86
2023-01-08T00:42:48.214Z,51.69
2023-01-08T00:45:53.580Z,50.34
2023-01-08T00:48:55.132Z,50.41
2023-01-08T00:51:56.556Z,50.86
2023-01-08T00:54:57.976Z,50.85
2023-01-08T00:57:59.377Z,49.47
2023-01-08T01:01:00.998Z,49.74
2023-01-08T01:04:02.496Z,49.86
2023-01-08T01:07:04.312Z,49.66
2023-01-08T01:10:06.190Z,49.32
2023-01-08T01:13:07.873Z,49.03
2023-01-08T01:16:09.431Z,49.31
2023-01-08T01:19:11.044Z,49.13
2023-01-08T01:22:12.479Z,48.75
2023-01-08T01:25:13.958Z,48.64
2023-01-08T01:28:16.170Z,48.60
2023-01-08T01:31:18.905Z,48.10
2023-01-08T01:34:20.441Z,47.80
2023-01-08T01:37:21.833Z,47.88
2023-01-08T01:40:23.256Z,47.57
2023-01-08T01:43:40.151Z,47.07
2023-01-08T01:46:41.744Z,46.82
2023-01-08T01:49:49.190Z,47.20
2023-01-08T01:53:24.010Z,47.00
2023-01-08T01:56:27.167Z,47.69
2023-01-08T01:59:29.152Z,47.08
2023-01-08T02:02:32.485Z,47.38
2023-01-08T02:05:44.335Z,47.26
2023-01-08T02:08:48.702Z,47.11
2023-01-08T02:12:19.086Z,46.69
2023-01-08T02:15:39.084Z,46.22
2023-01-08T02:18:50.555Z,46.39
2023-01-08T02:22:11.881Z,46.39
2023-01-08T02:25:28.265Z,46.97
2023-01-08T02:28:33.765Z,47.01
2023-01-08T02:31:38.596Z,47.45
2023-01-08T02:34:40.144Z,47.77
2023-01-08T02:37:42.142Z,47.91
2023-01-08T02:40:58.571Z,48.42
2023-01-08T02:44:00.702Z,47.34
2023-01-08T02:47:07.629Z,47.21
2023-01-08T02:50:13.527Z,46.72
2023-01-08T02:53:18.031Z,47.35
2023-01-08T02:56:24.690Z,46.96
2023-01-08T02:59:29.564Z,48.08
2023-01-08T03:02:35.149Z,47.99
2023-01-08T03:05:40.115Z,48.12
2023-01-08T03:08:44.018Z,48.49
2023-01-08T03:11:57.515Z,48.94
2023-01-08T03:15:07.175Z,48.76
2023-01-08T03:18:13.597Z,48.46
2023-01-08T03:21:17.459Z,48.24
2023-01-08T03:24:25.266Z,48.71
2023-01-08T03:27:32.447Z,48.72
2023-01-08T03:30:36.143Z,48.49
2023-01-08T03:33:38.321Z,49.23
2023-01-08T03:36:43.867Z,49.69
2023-01-08T03:39:55.670Z,50.98
2023-01-08T03:42:57.852Z,52.06
2023-01-08T03:46:03.347Z,53.16
2023-01-08T03:49:06.690Z,53.53
2023-01-08T03:52:08.261Z,54.78
2023-01-08T03:55:09.863Z,54.46
2023-01-08T03:58:11.273Z,55.14
2023-01-08T04:01:12.721Z,55.90
2023-01-08T04:04:14.239Z,55.87
2023-01-08T04:07:15.660Z,55.93
2023-01-08T04:10:17.205Z,56.64
2023-01-08T04:13:18.615Z,57.24
2023-01-08T04:16:20.124Z,57.89
2023-01-08T04:19:21.587Z,59.00
2023-01-08T04:22:23.031Z,61.36
2023-01-08T04:25:24.434Z,61.72
2023-01-08T04:28:25.832Z,62.73
2023-01-08T04:31:27.329Z,63.82
2023-01-08T04:34:28.872Z,64.03
2023-01-08T04:37:30.314Z,65.45
2023-01-08T04:40:33.254Z,65.80
2023-01-08T04:43:34.670Z,66.50
2023-01-08T04:46:36.364Z,66.74
2023-01-08T04:49:37.896Z,65.89
2023-01-08T04:52:39.318Z,66.58
2023-01-08T04:55:40.738Z,67.03
2023-01-08T04:58:42.125Z,66.43
2023-01-08T05:01:44.050Z,66.63
2023-01-08T05:04:45.635Z,67.05
2023-01-08T05:07:47.013Z,66.82
2023-01-08T05:10:48.421Z,66.26
2023-01-08T05:13:50.891Z,66.82
2023-01-08T05:16:52.279Z,66.16
2023-01-08T05:19:53.694Z,65.79
2023-01-08T05:22:55.132Z,65.24
2023-01-08T05:26:00.956Z,65.33
2023-01-08T05:29:02.387Z,65.79
2023-01-08T05:32:03.793Z,65.38
2023-01-08T05:35:05.668Z,65.90
2023-01-08T05:38:07.462Z,65.77
2023-01-08T05:41:09.673Z,65.38
2023-01-08T05:44:11.211Z,66.02
2023-01-08T05:47:12.583Z,65.57
2023-01-08T05:50:13.981Z,65.93
2023-01-08T05:53:15.374Z,65.52
2023-01-08T05:56:16.815Z,65.35
2023-01-08T05:59:18.343Z,65.86
2023-01-08T06:02:19.750Z,66.00
2023-01-08T06:05:21.183Z,67.09
2023-01-08T06:08:22.589Z,66.71
2023-01-08T06:11:23.967Z,66.88
2023-01-08T06:14:25.394Z,66.92
2023-01-08T06:17:26.789Z,66.09
2023-01-08T06:20:28.359Z,65.96
2023-01-08T06:23:29.851Z,66.16
2023-01-08T06:26:31.354Z,66.60
2023-01-08T06:29:32.759Z,66.13
2023-01-08T06:32:34.254Z,66.88
2023-01-08T06:35:35.685Z,67.92
2023-01-08T06:38:37.632Z,67.58
2023-01-08T06:41:39.036Z,68.57
2023-01-08T06:44:40.453Z,67.63
2023-01-08T06:47:41.967Z,68.54
2023-01-08T06:50:43.421Z,67.38
2023-01-08T06:53:48.394Z,68.31
2023-01-08T06:56:53.987Z,66.94
2023-01-08T06:59:55.855Z,67.63
2023-01-08T07:02:57.399Z,67.72
2023-01-08T07:05:58.854Z,68.08
2023-01-08T07:09:00.303Z,67.94
2023-01-08T07:12:01.712Z,68.02
2023-01-08T07:15:03.541Z,67.20
2023-01-08T07:18:05.970Z,67.55
2023-01-08T07:21:07.731Z,67.96
2023-01-08T07:24:09.371Z,68.59
2023-01-08T07:27:10.776Z,67.96
2023-01-08T07:30:28.321Z,68.04
2023-01-08T07:33:30.970Z,68.32
2023-01-08T07:36:32.414Z,67.55
2023-01-08T07:39:34.103Z,67.82
2023-01-08T07:42:35.528Z,68.40
2023-01-08T07:45:36.959Z,67.87
2023-01-08T07:48:38.471Z,67.40
2023-01-08T07:51:39.864Z,67.76
2023-01-08T07:54:41.452Z,68.36
2023-01-08T07:57:42.904Z,67.71
2023-01-08T08:00:44.486Z,67.70
2023-01-08T08:03:46.158Z,68.32
2023-01-08T08:06:47.567Z,67.54
2023-01-08T08:09:48.982Z,67.90
2023-01-08T08:12:50.359Z,67.37
2023-01-08T08:15:52.160Z,68.42
2023-01-08T08:18:53.637Z,67.35
2023-01-08T08:21:55.058Z,67.49
2023-01-08T08:24:56.489Z,66.93
2023-01-08T08:27:59.190Z,66.85
2023-01-08T08:31:02.455Z,67.17
2023-01-08T08:34:03.956Z,66.47
2023-01-08T08:37:05.401Z,66.07
2023-01-08T08:40:07.755Z,65.45
2023-01-08T08:43:09.873Z,65.69
2023-01-08T08:46:11.369Z,65.38
2023-01-08T08:49:12.845Z,65.01
2023-01-08T08:52:14.353Z,64.89
2023-01-08T08:55:17.219Z,63.70
2023-01-08T08:58:18.814Z,63.50
2023-01-08T09:01:20.315Z,63.63
2023-01-08T09:04:21.819Z,64.24
2023-01-08T09:07:23.195Z,63.23
2023-01-08T09:10:24.697Z,63.42
2023-01-08T09:13:26.168Z,63.96
2023-01-08T09:16:27.644Z,64.46
2023-01-08T09:19:29.056Z,64.09
2023-01-08T09:22:30.813Z,64.17
2023-01-08T09:25:32.467Z,64.53
2023-01-08T09:28:33.907Z,64.31
2023-01-08T09:31:35.355Z,63.91
2023-01-08T09:34:36.911Z,63.78
2023-01-08T09:37:38.320Z,64.15
2023-01-08T09:40:47.523Z,65.03
2023-01-08T09:43:52.756Z,65.21
2023-01-08T09:46:56.002Z,64.23
2023-01-08T09:50:02.168Z,63.64
2023-01-08T09:53:03.869Z,64.21
2023-01-08T09:56:13.046Z,64.77
2023-01-08T09:59:18.176Z,64.01
2023-01-08T10:02:23.910Z,63.93
2023-01-08T10:05:26.856Z,63.80
2023-01-08T10:08:28.296Z,63.48
2023-01-08T10:11:42.394Z,63.61
2023-01-08T10:14:49.811Z,63.24
2023-01-08T10:18:11.642Z,62.57
2023-01-08T10:21:15.013Z,63.07
2023-01-08T10:24:16.609Z,63.72
2023-01-08T10:27:21.599Z,64.07
2023-01-08T10:30:35.093Z,63.64
2023-01-08T10:33:43.794Z,63.94
2023-01-08T10:36:45.214Z,63.62
2023-01-08T10:39:47.939Z,63.93
2023-01-08T10:42:50.983Z,63.82
2023-01-08T10:46:05.097Z,63.95
2023-01-08T10:49:13.259Z,63.90
2023-01-08T10:52:28.194Z,63.60
2023-01-08T10:55:32.247Z,63.98
2023-01-08T10:58:43.408Z,63.22
2023-01-08T11:01:50.679Z,63.49
2023-01-08T11:04:52.793Z,63.40
2023-01-08T11:07:57.380Z,63.56
2023-01-08T11:11:01.198Z,63.72
2023-01-08T11:14:17.677Z,63.50
2023-01-08T11:17:19.251Z,63.71
2023-01-08T11:20:30.674Z,63.31
2023-01-08T11:23:32.152Z,63.07
2023-01-08T11:26:36.911Z,63.60
2023-01-08T11:29:50.229Z,63.31
2023-01-08T11:33:12.405Z,62.93
2023-01-08T11:36:23.446Z,63.24
2023-01-08T11:39:25.524Z,63.96
2023-01-08T11:42:45.672Z,64.01
2023-01-08T11:46:06.976Z,64.16
2023-01-08T11:49:39.354Z,64.35
2023-01-08T11:52:45.231Z,64.02
2023-01-08T11:56:17.128Z,64.07
2023-01-08T11:59:58.161Z,62.95
2023-01-08T12:03:03.260Z,63.01
2023-01-08T12:06:36.907Z,63.01
2023-01-08T12:09:46.161Z,63.06
2023-01-08T12:12:57.667Z,63.28
2023-01-08T12:16:31.044Z,62.84
2023-01-08T12:19:59.566Z,62.05
2023-01-08T12:23:16.095Z,61.65
2023-01-08T12:26:29.791Z,61.60
2023-01-08T12:29:46.285Z,60.67
2023-01-08T12:32:54.974Z,60.63
2023-01-08T12:36:02.348Z,59.84
2023-01-08T12:39:11.627Z,60.85
2023-01-08T12:42:24.295Z,60.50
2023-01-08T12:45:32.447Z,60.28
2023-01-08T12:48:37.753Z,60.45
2023-01-08T12:51:46.910Z,60.65
2023-01-08T12:55:02.439Z,60.62
2023-01-08T12:58:22.814Z,60.60
2023-01-08T13:01:40.580Z,60.88
2023-01-08T13:04:46.132Z,61.40
2023-01-08T13:08:00.200Z,60.60
2023-01-08T13:11:02.605Z,60.89
2023-01-08T13:14:07.933Z,61.35
2023-01-08T13:17:22.224Z,60.88
2023-01-08T13:20:32.176Z,61.04
2023-01-08T13:23:35.366Z,61.87
2023-01-08T13:26:37.247Z,61.33
2023-01-08T13:29:42.565Z,61.59
2023-01-08T13:32:47.176Z,61.29
2023-01-08T13:35:48.747Z,62.67
2023-01-08T13:39:11.986Z,62.14
2023-01-08T13:42:29.930Z,61.94
2023-01-08T13:45:32.701Z,61.47
2023-01-08T13:48:38.426Z,61.82
2023-01-08T13:51:44.095Z,61.85
2023-01-08T13:54:45.575Z,61.34
2023-01-08T13:57:55.787Z,61.15
2023-01-08T14:00:58.158Z,61.12
2023-01-08T14:03:59.607Z,61.12
2023-01-08T14:07:13.749Z,60.90
2023-01-08T14:10:17.380Z,61.40
2023-01-08T14:13:28.597Z,62.16
2023-01-08T14:16:30.578Z,61.31
2023-01-08T14:19:32.169Z,61.15
2023-01-08T14:22:34.785Z,61.15
2023-01-08T14:25:36.480Z,61.29
2023-01-08T14:28:37.922Z,61.73
2023-01-08T14:31:47.145Z,62.73
2023-01-08T14:34:50.853Z,62.36
2023-01-08T14:37:58.953Z,63.22
2023-01-08T14:41:53.733Z,62.35
2023-01-08T14:45:01.864Z,62.55
2023-01-08T14:48:12.952Z,61.69
2023-01-08T14:51:20.968Z,62.57
2023-01-08T14:54:30.135Z,62.46
2023-01-08T14:57:31.656Z,62.59
2023-01-08T15:00:33.166Z,62.34
2023-01-08T15:03:41.067Z,62.97
2023-01-08T15:06:42.935Z,62.58
2023-01-08T15:09:55.523Z,62.83
2023-01-08T15:12:57.496Z,62.14
2023-01-08T15:16:05.595Z,62.59
2023-01-08T15:19:20.341Z,63.08
2023-01-08T15:22:27.597Z,62.88
2023-01-08T15:25:30.736Z,62.70
2023-01-08T15:28:32.712Z,62.99
2023-01-08T15:31:39.926Z,62.77
2023-01-08T15:34:43.187Z,62.28
2023-01-08T15:37:45.249Z,63.53
2023-01-08T15:40:47.946Z,63.27
2023-01-08T15:43:51.430Z,63.96
2023-01-08T15:46:53.102Z,63.52
2023-01-08T15:49:54.588Z,63.58
2023-01-08T15:52:57.355Z,63.25
2023-01-08T15:55:58.869Z,63.13
2023-01-08T15:59:00.271Z,63.03
2023-01-08T16:02:01.852Z,63.21
2023-01-08T16:05:03.565Z,64.48
2023-01-08T16:08:06.007Z,63.76
2023-01-08T16:11:07.483Z,63.51
2023-01-08T16:14:10.668Z,63.68
2023-01-08T16:17:12.046Z,64.23
2023-01-08T16:20:14.120Z,65.32
2023-01-08T16:23:16.299Z,65.54
2023-01-08T16:26:17.798Z,65.36
2023-01-08T16:29:19.445Z,65.94
2023-01-08T16:32:20.867Z,65.02
2023-01-08T16:35:22.445Z,64.65
2023-01-08T16:38:25.151Z,65.08
2023-01-08T16:41:26.531Z,64.82
2023-01-08T16:44:32.338Z,66.11
2023-01-08T16:47:39.803Z,66.27
2023-01-08T16:50:42.738Z,66.01
2023-01-08T16:53:45.360Z,66.05
2023-01-08T16:56:46.858Z,66.10
2023-01-08T16:59:48.389Z,65.96
2023-01-08T17:02:50.152Z,66.61
2023-01-08T17:05:51.977Z,66.22
2023-01-08T17:08:54.545Z,66.24
2023-01-08T17:11:55.996Z,66.68
2023-01-08T17:14:57.388Z,66.74
2023-01-08T17:17:58.835Z,66.62
2023-01-08T17:21:00.458Z,66.64
2023-01-08T17:24:02.382Z,66.92
2023-01-08T17:27:04.363Z,66.79
2023-01-08T17:30:06.553Z,66.97
2023-01-08T17:33:07.965Z,67.28
2023-01-08T17:36:21.322Z,66.28
2023-01-08T17:39:22.837Z,66.64
2023-01-08T17:42:24.337Z,66.19
2023-01-08T17:45:25.774Z,66.52
2023-01-08T17:48:27.154Z,66.60
2023-01-08T17:51:30.207Z,66.30
2023-01-08T17:54:31.735Z,66.36
2023-01-08T17:57:33.222Z,65.89
2023-01-08T18:00:34.690Z,66.62
2023-01-08T18:03:36.112Z,66.73
2023-01-08T18:06:37.938Z,66.41
2023-01-08T18:09:39.512Z,66.64
2023-01-08T18:12:41.035Z,66.29
2023-01-08T18:15:42.611Z,66.00
2023-01-08T18:18:44.333Z,66.23
2023-01-08T18:21:46.735Z,66.48
2023-01-08T18:24:48.503Z,66.46
2023-01-08T18:27:50.122Z,66.36
2023-01-08T18:30:51.615Z,66.29
2023-01-08T18:33:53.190Z,65.66
2023-01-08T18:36:54.734Z,66.01
2023-01-08T18:39:56.309Z,66.57
2023-01-08T18:42:57.725Z,66.46
2023-01-08T18:46:00.770Z,66.95
2023-01-08T18:49:02.467Z,67.16
2023-01-08T18:52:04.139Z,66.52
2023-01-08T18:55:06.206Z,67.49
2023-01-08T18:58:07.677Z,68.70
2023-01-08T19:01:09.412Z,68.90
2023-01-08T19:04:19.000Z,69.42
2023-01-08T19:07:26.298Z,69.83
2023-01-08T19:10:28.002Z,69.79
2023-01-08T19:13:29.446Z,69.84
2023-01-08T19:16:31.018Z,69.86
2023-01-08T19:19:32.523Z,69.52
2023-01-08T19:22:34.217Z,69.66
2023-01-08T19:25:39.298Z,69.44
2023-01-08T19:28:42.076Z,70.38
2023-01-08T19:31:43.642Z,70.66
2023-01-08T19:34:45.147Z,69.96
2023-01-08T19:37:46.565Z,70.73
2023-01-08T19:40:48.106Z,70.46
2023-01-08T19:43:49.805Z,70.45
2023-01-08T19:46:51.394Z,70.36
2023-01-08T19:49:52.847Z,71.26
2023-01-08T19:52:56.455Z,71.85
2023-01-08T19:56:02.449Z,71.46
2023-01-08T19:59:03.861Z,72.04
2023-01-08T20:02:05.465Z,71.63
2023-01-08T20:05:07.305Z,71.64
2023-01-08T20:08:08.821Z,71.83
2023-01-08T20:11:12.435Z,71.93
2023-01-08T20:14:14.128Z,71.64
2023-01-08T20:17:18.388Z,71.57
2023-01-08T20:20:19.846Z,71.85
2023-01-08T20:23:21.258Z,71.33
2023-01-08T20:26:22.686Z,71.50
2023-01-08T20:29:24.354Z,71.69
2023-01-08T20:32:25.832Z,71.90
2023-01-08T20:35:27.608Z,71.86
2023-01-08T20:38:29.637Z,71.68
2023-01-08T20:41:31.598Z,72.21
2023-01-08T20:44:33.871Z,71.89
2023-01-08T20:47:35.281Z,71.98
2023-01-08T20:50:37.388Z,71.81
2023-01-08T20:53:39.479Z,72.17
2023-01-08T20:56:42.681Z,72.18
2023-01-08T20:59:44.167Z,72.23
2023-01-08T21:02:46.370Z,72.51
2023-01-08T21:05:47.874Z,72.34
2023-01-08T21:08:51.502Z,72.07
2023-01-08T21:11:53.022Z,71.96
2023-01-08T21:14:54.434Z,72.04
2023-01-08T21:17:55.860Z,72.36
2023-01-08T21:21:02.129Z,71.96
2023-01-08T21:24:05.227Z,72.07
2023-01-08T21:27:06.665Z,72.43
2023-01-08T21:30:08.843Z,72.80
2023-01-08T21:33:10.306Z,73.64
2023-01-08T21:36:14.487Z,72.96
2023-01-08T21:39:15.947Z,73.43
2023-01-08T21:42:36.137Z,74.12
2023-01-08T21:45:37.605Z,73.79
2023-01-08T21:48:39.415Z,73.12
2023-01-08T21:51:59.644Z,73.12
2023-01-08T21:55:02.458Z,73.18
2023-01-08T21:58:03.887Z,73.29
2023-01-08T22:01:08.965Z,73.01
2023-01-08T22:04:10.383Z,72.89
2023-01-08T22:07:12.138Z,73.81
2023-01-08T22:10:13.743Z,72.97
2023-01-08T22:13:15.145Z,73.38
2023-01-08T22:16:16.655Z,72.83
2023-01-08T22:19:18.116Z,72.80
2023-01-08T22:22:19.608Z,72.21
2023-01-08T22:25:21.013Z,72.40
2023-01-08T22:28:22.452Z,72.51
2023-01-08T22:31:24.047Z,72.20
2023-01-08T22:34:25.604Z,72.18
2023-01-08T22:37:27.057Z,72.39
2023-01-08T22:40:28.520Z,72.11
2023-01-08T22:43:30.013Z,72.02
2023-01-08T22:46:31.634Z,73.10
2023-01-08T22:49:33.455Z,73.27
2023-01-08T22:52:35.051Z,73.47
2023-01-08T22:55:41.286Z,73.99
2023-01-08T22:58:45.200Z,74.15
2023-01-08T23:01:46.827Z,73.75
2023-01-08T23:04:52.662Z,73.35
2023-01-08T23:07:54.052Z,73.68
2023-01-08T23:10:57.274Z,74.23
2023-01-08T23:14:00.695Z,74.15
2023-01-08T23:17:02.088Z,74.47
2023-01-08T23:20:05.104Z,73.38
2023-01-08T23:23:06.503Z,72.69
2023-01-08T23:26:13.945Z,72.63
2023-01-08T23:29:15.387Z,72.52
2023-01-08T23:32:16.753Z,73.34
2023-01-08T23:35:18.163Z,73.96
2023-01-08T23:38:19.747Z,74.56
2023-01-08T23:41:23.115Z,74.76
2023-01-08T23:44:24.597Z,74.87
2023-01-08T23:47:26.016Z,74.75
2023-01-08T23:50:27.453Z,74.21
2023-01-08T23:53:28.941Z,74.42
2023-01-08T23:56:30.462Z,75.28
2023-01-08T23:59:32.398Z,74.92
